Terminal Aerodrome Forecast
Issued by NWS

Home | Current Version | Previous Version | Graphics & Text | Print | Product List | Glossary On
Versions: 1 2 3 4 5 6 7 8 9 10 11 12 13 14 15 16 17 18 19 20
138
FTUS43 KIWX 291609 AAA
TAFSBN
TAF AMD
KSBN 291609Z 2916/3012 08005KT P6SM BKN020
     FM291700 08008KT P6SM VCSH BKN050
     FM300600 07004KT P6SM BKN090
     FM301000 08005KT 3SM BR BKN020=

USA.gov is the U.S. government's official web portal to all federal, state and local government web resources and services.